Acton, Maine
Current Conditions -  °F | °C
As of 5:35 AM on Friday 24 Oct 2014 (Local Time) from KSFM Reporting Station
Overcast Overcast  
Wind Chill:   Ceiling: 1800
Heat Index:   Visibility: 8mi
Dew Point:   Wind: 12mph
Humidity: 81%   Direction: 360°N
Pressure: 29.68"   Gusts: 18mph
Location:  43.53°N, 70.91°W
Report Text: KSFM 240935Z AUTO 36010G16KT 8SM SCT013 BKN018 OVC026 08/05 A2968 RMK AO1
Loading
Personal Weather Stations






























Interactive Weather Map
Tropical Storm Tracking
New forecast layout! Learn more

10-Day Weather Forecast

Advertisements
Track Severe Weather on mobile